Time;durP1;ratioP1;P1;durP2;ratioP2;P2;SDS_P1;SDS_P2;PMS_P1;PMS_P2;Temp;Humidity;BMP_temperature;BMP_pressure;BME280_temperature;BME280_humidity;BME280_pressure;Samples;Min_cycle;Max_cycle;Signal;HPM_P1;HPM_P2
2021/04/06 00:02:16;;;;;;;30.77;13.90;;;;;;;6.24;63.67;100166.80;1739193;81;21302;-59
2021/04/06 00:04:54;;;;;;;28.05;14.68;;;;;;;6.22;63.91;100167.86;1717406;82;21254;-60
2021/04/06 00:07:27;;;;;;;29.72;14.85;;;;;;;6.20;64.06;100167.14;1717841;82;22132;-59
2021/04/06 00:10:09;;;;;;;30.90;14.90;;;;;;;6.18;64.23;100164.66;1719672;82;21826;-60
2021/04/06 00:12:43;;;;;;;31.15;13.93;;;;;;;6.16;64.16;100167.02;1690699;83;21502;-59
2021/04/06 00:15:18;;;;;;;25.75;11.78;;;;;;;6.12;64.25;100163.79;1702474;84;21161;-59
2021/04/06 00:17:55;;;;;;;18.77;10.48;;;;;;;6.11;64.19;100162.15;1675665;84;21489;-59
2021/04/06 00:20:28;;;;;;;16.12;9.40;;;;;;;6.08;64.04;100167.55;1702533;84;21866;-59
2021/04/06 00:23:02;;;;;;;14.53;8.95;;;;;;;6.05;64.20;100166.00;1677775;83;21311;-59
2021/04/06 00:25:37;;;;;;;14.10;8.55;;;;;;;6.04;64.32;100173.42;1709263;83;21188;-59
2021/04/06 00:28:14;;;;;;;20.37;11.75;;;;;;;6.00;64.37;100168.56;1710458;83;21835;-59
2021/04/06 00:30:52;;;;;;;65.00;26.15;;;;;;;5.96;64.21;100167.13;1721755;83;21157;-59
2021/04/06 00:33:28;;;;;;;45.98;21.48;;;;;;;5.89;64.11;100170.64;1710992;82;21205;-59
2021/04/06 00:36:02;;;;;;;33.30;15.83;;;;;;;5.85;64.09;100177.46;1703237;84;21232;-59
2021/04/06 00:38:43;;;;;;;78.35;24.87;;;;;;;5.76;64.09;100174.98;1702127;84;21252;-59
2021/04/06 00:41:16;;;;;;;37.45;20.20;;;;;;;5.67;64.19;100175.64;1702731;84;21169;-59
2021/04/06 00:43:49;;;;;;;30.40;15.13;;;;;;;5.59;64.34;100174.03;1710050;83;21272;-58
2021/04/06 00:46:28;;;;;;;29.95;17.25;;;;;;;5.49;64.53;100175.63;1717591;83;21165;-59
2021/04/06 00:49:00;;;;;;;59.93;30.12;;;;;;;5.41;64.70;100180.05;1689661;83;21161;-60
2021/04/06 00:51:40;;;;;;;64.70;27.60;;;;;;;5.33;64.84;100176.30;1713030;84;22062;-60
2021/04/06 00:54:14;;;;;;;60.65;26.57;;;;;;;5.22;64.96;100179.64;1715839;83;21173;-59
2021/04/06 00:56:47;;;;;;;60.52;27.15;;;;;;;5.13;65.39;100192.41;1698007;83;21221;-60
2021/04/06 00:59:23;;;;;;;39.37;17.87;;;;;;;5.06;65.82;100196.34;1716262;83;21302;-60
2021/04/06 01:02:04;;;;;;;29.70;13.40;;;;;;;4.98;66.18;100190.83;1717099;83;22079;-59
2021/04/06 01:04:39;;;;;;;23.38;12.68;;;;;;;4.91;66.45;100194.30;1715809;82;21220;-60
2021/04/06 01:07:15;;;;;;;23.32;13.25;;;;;;;4.88;66.70;100196.25;1716722;82;21363;-59
2021/04/06 01:09:52;;;;;;;20.35;11.40;;;;;;;4.83;66.89;100195.72;1679057;84;21193;-59
2021/04/06 01:12:28;;;;;;;26.70;11.75;;;;;;;4.78;67.13;100196.52;1693269;84;21153;-59
2021/04/06 01:15:03;;;;;;;24.85;11.68;;;;;;;4.72;67.25;100195.98;1693287;84;21280;-59
2021/04/06 01:17:37;;;;;;;23.92;12.65;;;;;;;4.66;67.41;100192.94;1693646;84;21626;-60
2021/04/06 01:20:13;;;;;;;30.02;12.93;;;;;;;4.60;67.51;100206.31;1675380;84;21699;-59
2021/04/06 01:22:48;;;;;;;39.27;17.70;;;;;;;4.53;67.61;100205.05;1693210;84;21305;-59
2021/04/06 01:25:34;;;;;;;42.93;20.52;;;;;;;4.44;67.57;100211.64;1693275;84;21300;-60
2021/04/06 01:28:08;;;;;;;47.27;20.50;;;;;;;4.37;67.66;100219.94;1692866;84;21771;-60
2021/04/06 01:30:47;;;;;;;52.25;24.10;;;;;;;4.27;67.73;100209.78;1699268;84;21240;-60
2021/04/06 01:33:23;;;;;;;162.18;48.80;;;;;;;4.17;67.92;100223.78;1692920;84;21256;-60
2021/04/06 01:35:59;;;;;;;126.27;39.98;;;;;;;4.06;67.96;100217.97;1693308;84;21213;-59
2021/04/06 01:38:32;;;;;;;92.82;31.50;;;;;;;3.96;68.06;100225.12;1692630;84;21272;-59
2021/04/06 01:41:06;;;;;;;57.80;22.48;;;;;;;3.84;68.22;100231.90;1693360;84;21375;-60
2021/04/06 01:43:48;;;;;;;60.15;22.00;;;;;;;3.72;68.59;100230.52;1693097;84;21899;-59
2021/04/06 01:46:19;;;;;;;82.90;31.33;;;;;;;3.64;68.83;100228.84;1693544;84;21382;-59
2021/04/06 01:48:52;;;;;;;39.90;18.00;;;;;;;3.57;69.01;100223.21;1693417;84;21311;-59
2021/04/06 01:51:24;;;;;;;57.97;23.67;;;;;;;3.53;69.22;100228.67;1693179;84;21186;-60
2021/04/06 01:53:58;;;;;;;39.73;17.42;;;;;;;3.49;69.37;100228.49;1693864;84;21309;-60
2021/04/06 01:56:34;;;;;;;20.43;12.20;;;;;;;3.43;69.55;100233.56;1693924;84;21276;-59
2021/04/06 01:59:09;;;;;;;33.23;16.35;;;;;;;3.36;69.75;100235.69;1692922;84;21166;-60
2021/04/06 02:01:52;;;;;;;27.45;14.33;;;;;;;3.28;69.92;100241.77;1692906;84;21340;-58
2021/04/06 02:04:25;;;;;;;27.33;14.97;;;;;;;3.26;70.20;100246.66;1693352;84;21325;-60
2021/04/06 02:07:00;;;;;;;37.20;17.15;;;;;;;3.20;70.43;100244.45;1693798;84;21278;-60
2021/04/06 02:09:33;;;;;;;46.23;23.38;;;;;;;3.18;70.76;100244.52;1692718;84;21332;-59
2021/04/06 02:12:08;;;;;;;58.23;25.50;;;;;;;3.19;70.95;100251.38;1692778;84;21339;-59
2021/04/06 02:14:40;;;;;;;53.38;25.40;;;;;;;3.20;71.04;100257.38;1691542;84;21220;-60
2021/04/06 02:17:14;;;;;;;;;;;;;;;3.19;71.15;100256.55;1693108;84;21154;-60
2021/04/06 02:19:47;;;;;;;47.58;23.87;;;;;;;3.19;71.27;100253.12;1691773;84;20239;-59
2021/04/06 02:22:21;;;;;;;43.13;21.33;;;;;;;3.17;71.41;100258.39;1690783;85;21517;-60
2021/04/06 02:24:54;;;;;;;40.80;20.80;;;;;;;3.19;71.54;100260.87;1708836;84;21158;-60
2021/04/06 02:27:33;;;;;;;32.33;15.07;;;;;;;3.21;71.67;100261.61;1709532;83;21225;-59
2021/04/06 02:30:12;;;;;;;38.20;19.80;;;;;;;3.21;71.79;100265.05;1700213;84;21260;-59
2021/04/06 02:32:45;;;;;;;39.25;18.57;;;;;;;3.19;71.71;100264.30;1708764;84;21299;-59
2021/04/06 02:35:18;;;;;;;36.53;19.00;;;;;;;3.17;71.54;100267.90;1709373;83;22017;-58
2021/04/06 02:37:51;;;;;;;22.58;12.88;;;;;;;3.12;71.51;100266.88;1709552;82;21323;-58
2021/04/06 02:40:25;;;;;;;25.70;13.90;;;;;;;3.08;71.45;100282.18;1709058;83;21276;-58
2021/04/06 02:42:58;;;;;;;20.70;12.53;;;;;;;2.99;71.36;100280.58;1702509;84;21369;-58
2021/04/06 02:45:32;;;;;;;20.17;12.07;;;;;;;2.91;71.77;100284.92;1713612;83;21275;-58
2021/04/06 02:48:14;;;;;;;17.05;11.10;;;;;;;2.86;72.11;100289.52;1712385;83;21847;-58
2021/04/06 02:50:47;;;;;;;22.67;11.50;;;;;;;2.82;72.22;100297.53;1682320;84;21217;-59
2021/04/06 02:53:20;;;;;;;20.57;11.33;;;;;;;2.79;72.49;100293.82;1654117;84;21383;-60
2021/04/06 02:55:54;;;;;;;25.43;11.63;;;;;;;2.79;72.67;100298.99;1700673;84;21177;-59
2021/04/06 02:58:31;;;;;;;24.05;12.58;;;;;;;2.80;72.73;100300.19;1700711;83;21296;-59
2021/04/06 03:01:17;;;;;;;31.35;14.15;;;;;;;2.77;72.58;100303.42;1681235;84;21177;-59
2021/04/06 03:03:50;;;;;;;26.73;13.93;;;;;;;2.70;72.62;100306.78;1700654;83;21183;-59
2021/04/06 03:06:23;;;;;;;24.87;12.83;;;;;;;2.68;72.84;100308.17;1711412;83;21318;-59
2021/04/06 03:08:59;;;;;;;24.20;13.38;;;;;;;2.69;73.02;100311.14;1701201;83;21367;-59
2021/04/06 03:11:35;;;;;;;20.60;11.90;;;;;;;2.73;73.17;100317.80;1699573;84;21185;-58
2021/04/06 03:14:07;;;;;;;22.17;12.30;;;;;;;2.78;73.19;100323.16;1687291;83;21905;-59
2021/04/06 03:16:42;;;;;;;14.00;8.85;;;;;;;2.87;73.31;100326.52;1700182;84;21185;-59
2021/04/06 03:19:15;;;;;;;20.57;11.90;;;;;;;2.96;73.36;100329.42;1701123;83;21193;-60
2021/04/06 03:21:51;;;;;;;20.05;11.03;;;;;;;3.07;73.41;100326.25;1701022;83;21169;-59
2021/04/06 03:24:24;;;;;;;25.27;12.37;;;;;;;3.23;73.30;100327.03;1652962;84;21328;-60
2021/04/06 03:27:04;;;;;;;59.53;28.10;;;;;;;3.41;73.06;100330.67;1699793;84;21266;-59
2021/04/06 03:29:37;;;;;;;44.13;21.85;;;;;;;3.58;72.49;100333.61;1698741;84;21213;-59
2021/04/06 03:32:11;;;;;;;44.63;22.40;;;;;;;3.66;71.77;100332.67;1699416;84;21814;-59
2021/04/06 03:34:44;;;;;;;72.83;31.80;;;;;;;3.72;71.16;100328.90;1699824;84;21311;-59
2021/04/06 03:37:17;;;;;;;67.70;25.90;;;;;;;3.82;70.77;100341.67;1699693;84;21205;-60
2021/04/06 03:39:50;;;;;;;102.55;31.95;;;;;;;3.93;70.32;100333.62;1699749;84;21335;-60
2021/04/06 03:42:27;;;;;;;82.27;26.57;;;;;;;4.07;69.93;100328.91;1699592;84;21264;-61
2021/04/06 03:45:11;;;;;;;53.45;20.65;;;;;;;4.28;69.49;100339.24;1677794;85;21836;-60
2021/04/06 03:47:58;;;;;;;33.02;15.05;;;;;;;4.47;69.38;100346.25;1679527;85;21297;-60
2021/04/06 03:50:39;;;;;;;34.60;17.07;;;;;;;4.75;68.85;100341.48;1680396;84;21299;-61
2021/04/06 03:53:12;;;;;;;28.65;14.87;;;;;;;5.08;68.16;100339.33;1684950;84;21546;-61
2021/04/06 03:55:47;;;;;;;29.15;14.43;;;;;;;5.41;67.44;100334.98;1699894;84;21292;-61
2021/04/06 03:58:29;;;;;;;22.48;11.68;;;;;;;5.73;66.71;100330.23;1689238;84;21305;-62
2021/04/06 04:00:54;;;;;;;25.72;12.98;;;;;;;6.09;65.99;100322.08;1680095;84;21260;-61
2021/04/06 04:03:28;;;;;;;25.55;13.28;;;;;;;6.59;65.06;100315.11;1679953;84;21294;-61
2021/04/06 04:06:01;;;;;;;35.73;16.53;;;;;;;7.19;63.81;100318.92;1679604;85;21338;-61
2021/04/06 04:08:34;;;;;;;25.53;14.70;;;;;;;7.77;62.35;100319.31;1678699;85;21929;-62
2021/04/06 04:11:07;;;;;;;41.33;17.65;;;;;;;8.27;60.50;100331.09;1676869;84;21389;-66
2021/04/06 04:13:40;;;;;;;26.90;13.20;;;;;;;8.63;58.98;100327.73;1676940;85;21581;-64
2021/04/06 04:16:13;;;;;;;16.13;10.63;;;;;;;9.07;58.05;100330.70;1681812;85;21249;-62
2021/04/06 04:18:46;;;;;;;16.90;10.00;;;;;;;9.53;56.42;100315.16;1680622;84;21342;-63
2021/04/06 04:21:19;;;;;;;;;;;;;;;9.87;54.96;100322.64;1681248;85;21330;-62
2021/04/06 04:23:52;;;;;;;17.48;9.80;;;;;;;10.27;53.85;100325.31;1686360;83;20242;-66
2021/04/06 04:26:26;;;;;;;13.05;9.15;;;;;;;10.68;52.41;100329.09;1711131;82;21304;-65
2021/04/06 04:28:59;;;;;;;16.83;9.07;;;;;;;11.01;50.99;100330.50;1708340;83;21318;-66
2021/04/06 04:31:33;;;;;;;18.70;8.85;;;;;;;11.36;50.15;100341.77;1707554;84;21391;-67
2021/04/06 04:34:06;;;;;;;18.00;9.63;;;;;;;11.72;48.82;100334.98;1708557;84;21264;-67
2021/04/06 04:36:39;;;;;;;24.65;10.35;;;;;;;12.06;47.82;100329.59;1707605;84;21367;-66
2021/04/06 04:39:12;;;;;;;21.13;9.53;;;;;;;12.01;47.12;100339.68;1707956;84;21244;-67
2021/04/06 04:41:45;;;;;;;14.55;9.60;;;;;;;12.04;46.99;100343.31;1704518;84;21588;-65
2021/04/06 04:44:18;;;;;;;20.02;12.53;;;;;;;12.07;46.33;100345.66;1706002;83;21506;-67
2021/04/06 04:46:51;;;;;;;18.10;11.23;;;;;;;11.85;46.56;100352.06;1705927;83;21252;-64
2021/04/06 04:49:24;;;;;;;15.30;10.47;;;;;;;11.33;47.08;100361.69;1706433;83;21402;-67
2021/04/06 04:52:22;;;;;;;18.27;12.20;;;;;;;10.57;48.25;100364.55;1702537;84;21975;-66
2021/04/06 04:55:07;;;;;;;20.88;12.90;;;;;;;9.94;49.93;100374.77;1688329;83;21192;-66
2021/04/06 05:01:51;;;;;;;29.18;11.70;;;;;;;9.31;52.42;100382.72;1704680;84;21328;-63
2021/04/06 05:04:24;;;;;;;19.62;12.78;;;;;;;10.19;52.31;100374.88;1704667;83;21227;-72
2021/04/06 05:06:57;;;;;;;16.87;11.20;;;;;;;11.13;51.12;100366.09;1704137;84;21465;-69
2021/04/06 05:09:30;;;;;;;18.17;11.60;;;;;;;11.99;48.92;100367.36;1704642;84;21509;-66
2021/04/06 05:12:07;;;;;;;25.60;11.25;;;;;;;12.53;47.36;100370.55;1703688;84;21586;-61
2021/04/06 05:14:40;;;;;;;17.37;11.65;;;;;;;13.00;45.91;100365.15;1705674;84;22039;-61
2021/04/06 05:17:14;;;;;;;15.50;10.98;;;;;;;13.43;45.16;100364.78;1704596;84;22116;-65
2021/04/06 05:19:47;;;;;;;18.02;11.15;;;;;;;14.01;44.11;100366.37;1706047;84;21322;-71
2021/04/06 05:22:21;;;;;;;17.77;12.35;;;;;;;14.58;43.00;100368.83;1705659;84;21330;-70
2021/04/06 05:24:54;;;;;;;22.05;12.88;;;;;;;15.14;41.84;100365.50;1705900;84;21339;-70
2021/04/06 05:27:27;;;;;;;23.35;14.65;;;;;;;15.70;40.79;100358.64;1705212;83;21220;-69
2021/04/06 05:33:41;;;;;;;25.77;17.95;;;;;;;16.65;38.92;100343.55;1710597;83;20214;-68
2021/04/06 05:36:15;;;;;;;27.07;18.35;;;;;;;17.32;37.95;100345.10;1709314;84;21282;-64
2021/04/06 05:38:49;;;;;;;23.25;17.45;;;;;;;17.96;37.01;100339.78;1709267;84;21326;-69
2021/04/06 05:41:22;;;;;;;25.23;17.02;;;;;;;18.61;35.82;100342.51;1710576;84;21517;-64
2021/04/06 05:44:00;;;;;;;25.90;18.32;;;;;;;18.82;34.86;100339.40;1710570;84;21160;-71
2021/04/06 05:46:36;;;;;;;21.82;15.30;;;;;;;18.64;34.83;100342.14;1709244;84;21254;-74
2021/04/06 05:49:12;;;;;;;20.32;15.40;;;;;;;18.27;35.07;100340.41;1711279;84;21310;-68
2021/04/06 05:51:47;;;;;;;21.57;16.35;;;;;;;18.26;34.91;100337.95;1710491;84;21288;-73
2021/04/06 05:54:20;;;;;;;20.60;16.32;;;;;;;18.62;34.61;100341.52;1710570;84;21184;-65
2021/04/06 05:56:53;;;;;;;22.40;16.35;;;;;;;19.24;34.20;100345.77;1709740;84;21219;-63
2021/04/06 05:59:26;;;;;;;25.77;17.05;;;;;;;20.10;32.83;100346.79;1710580;84;21442;-60
2021/04/06 06:01:59;;;;;;;23.42;16.67;;;;;;;21.25;30.83;100343.21;1710116;84;22039;-72
2021/04/06 06:04:34;;;;;;;20.48;15.95;;;;;;;21.25;30.83;100343.21;1709213;82;21521;-67
2021/04/06 06:07:07;;;;;;;20.02;15.65;;;;;;;21.66;30.34;100344.88;1689601;84;22117;-62
2021/04/06 06:09:40;;;;;;;22.22;16.55;;;;;;;21.94;29.59;100338.32;1710452;84;21467;-64
2021/04/06 06:12:15;;;;;;;20.70;16.57;;;;;;;22.25;29.10;100333.62;1709990;84;21275;-62
2021/04/06 06:14:56;;;;;;;24.12;17.82;;;;;;;22.56;28.60;100339.58;1710211;84;21240;-65
2021/04/06 06:17:29;;;;;;;20.90;17.57;;;;;;;22.84;28.18;100335.25;1709353;84;21263;-70
2021/04/06 06:20:03;;;;;;;62.10;39.05;;;;;;;22.92;28.03;100336.35;1715296;83;21306;-63
2021/04/06 06:22:37;;;;;;;47.13;31.97;;;;;;;23.07;27.88;100338.23;1710021;84;21223;-65
2021/04/06 06:25:13;;;;;;;24.75;17.10;;;;;;;23.35;27.83;100331.48;1710552;84;21247;-69
2021/04/06 06:27:48;;;;;;;22.62;16.05;;;;;;;24.26;26.48;100341.06;1709285;84;22009;-70
2021/04/06 06:30:37;;;;;;;24.27;16.35;;;;;;;24.26;26.48;100341.06;1710002;83;21204;-60
2021/04/06 06:33:19;;;;;;;19.77;15.72;;;;;;;24.61;25.88;100333.22;1709644;84;21279;-69
2021/04/06 06:36:01;;;;;;;24.70;16.25;;;;;;;25.00;25.27;100339.95;1710363;84;21236;-59
2021/04/06 06:38:40;;;;;;;19.87;13.58;;;;;;;25.34;24.55;100337.36;1709190;84;21426;-60
2021/04/06 06:41:21;;;;;;;17.92;14.18;;;;;;;25.51;24.23;100336.19;1710467;84;21507;-65
2021/04/06 06:43:56;;;;;;;17.62;13.45;;;;;;;25.75;24.13;100338.37;1709351;84;21204;-61
2021/04/06 06:46:31;;;;;;;18.27;14.30;;;;;;;26.09;23.78;100334.87;1712054;84;21300;-65
2021/04/06 06:49:09;;;;;;;16.17;13.65;;;;;;;26.29;23.07;100335.35;1706895;84;21255;-66
2021/04/06 06:51:42;;;;;;;15.72;12.98;;;;;;;26.35;23.47;100327.68;1711317;84;21361;-68
2021/04/06 06:54:16;;;;;;;43.83;28.30;;;;;;;26.58;22.56;100337.00;1709208;84;21937;-67
2021/04/06 06:56:50;;;;;;;20.80;15.20;;;;;;;26.71;22.65;100335.40;1709908;84;21427;-63
2021/04/06 06:59:23;;;;;;;19.07;13.93;;;;;;;26.95;22.39;100339.36;1709353;84;21203;-68
2021/04/06 07:01:57;;;;;;;16.40;13.58;;;;;;;27.00;21.60;100338.11;1691497;84;21188;-70
2021/04/06 07:04:31;;;;;;;23.12;14.00;;;;;;;26.79;22.13;100331.55;1689708;83;21197;-64
2021/04/06 07:07:03;;;;;;;;;;;;;;;26.87;21.93;100335.18;1712743;83;21243;-68
2021/04/06 07:09:36;;;;;;;31.27;18.23;;;;;;;26.89;21.85;100335.78;1709008;84;20206;-66
2021/04/06 07:12:11;;;;;;;18.27;13.32;;;;;;;26.79;21.92;100331.55;1711106;84;21313;-67
2021/04/06 07:14:45;;;;;;;26.55;17.65;;;;;;;26.90;21.93;100324.48;1710455;84;21264;-67
2021/04/06 07:17:21;;;;;;;14.83;12.05;;;;;;;27.24;21.47;100319.47;1710717;84;21469;-72
2021/04/06 07:19:53;;;;;;;;;;;;;;;27.37;20.81;100317.30;1711857;84;21204;-71
2021/04/06 07:22:25;;;;;;;17.75;11.78;;;;;;;27.29;20.95;100317.69;1710623;84;20214;-73
2021/04/06 07:29:11;;;;;;;17.73;12.00;;;;;;;27.77;20.78;100320.34;1710036;83;21775;-69
2021/04/06 07:31:45;;;;;;;16.35;11.95;;;;;;;28.39;19.99;100319.61;1707026;83;21617;-72
2021/04/06 07:34:19;;;;;;;11.65;9.93;;;;;;;28.69;20.02;100322.16;1699686;84;21243;-67
2021/04/06 07:36:54;;;;;;;11.65;9.50;;;;;;;28.98;19.38;100322.72;1703021;84;21443;-66
2021/04/06 07:39:27;;;;;;;7.92;7.12;;;;;;;28.93;19.47;100317.80;1704929;84;21248;-64
2021/04/06 07:41:59;;;;;;;;;;;;;;;29.14;18.93;100323.67;1708619;84;21314;-66
2021/04/06 07:44:38;;;;;;;16.43;9.87;;;;;;;29.24;18.50;100323.80;1705127;84;20688;-62
2021/04/06 07:47:11;;;;;;;11.48;8.80;;;;;;;29.00;18.68;100320.58;1705671;84;21606;-65
2021/04/06 07:49:44;;;;;;;12.63;10.40;;;;;;;28.88;18.40;100319.10;1705348;84;22137;-64
2021/04/06 07:52:20;;;;;;;12.53;9.95;;;;;;;28.52;18.66;100318.69;1705563;84;21981;-64
2021/04/06 07:54:54;;;;;;;25.17;15.68;;;;;;;27.82;19.16;100327.16;1705094;84;21830;-64
2021/04/06 07:57:47;;;;;;;90.95;58.85;;;;;;;27.08;19.71;100318.92;1705367;84;21383;-62
2021/04/06 08:00:49;;;;;;;101.30;71.47;;;;;;;26.80;20.44;100312.23;1704436;84;21323;-71
2021/04/06 08:07:35;;;;;;;95.87;46.45;;;;;;;27.41;19.92;100316.29;1704698;84;21989;-68
2021/04/06 08:10:19;;;;;;;207.72;96.22;;;;;;;26.86;19.46;100323.34;1705110;83;21219;-69
2021/04/06 08:12:54;;;;;;;185.67;91.40;;;;;;;26.36;20.48;100309.19;1708176;83;22195;-65
2021/04/06 08:15:31;;;;;;;110.22;58.55;;;;;;;26.03;20.54;100319.17;1685129;84;21328;-72
2021/04/06 08:18:06;;;;;;;74.15;38.00;;;;;;;25.72;20.57;100320.08;1708417;83;21184;-64
2021/04/06 08:20:43;;;;;;;50.17;27.62;;;;;;;25.66;20.51;100321.00;1705383;83;21604;-69
2021/04/06 08:23:38;;;;;;;69.72;33.67;;;;;;;25.32;19.66;100325.23;1705773;83;21463;-69
2021/04/06 08:26:33;;;;;;;35.75;19.40;;;;;;;24.63;20.29;100311.05;1704639;83;22263;-64
2021/04/06 08:29:29;;;;;;;37.38;19.45;;;;;;;23.89;21.60;100307.25;1704508;83;21274;-70
2021/04/06 08:32:16;;;;;;;39.13;25.82;;;;;;;24.10;21.93;100313.02;1710927;83;21346;-72
2021/04/06 08:38:59;;;;;;;25.50;12.05;;;;;;;25.59;19.05;100302.87;1703907;83;21132;-66
2021/04/06 08:45:28;;;;;;;18.10;9.28;;;;;;;26.06;17.94;100298.59;1701428;84;20706;-64
2021/04/06 08:48:00;;;;;;;;;;;;;;;25.25;17.89;100298.55;1705776;84;21271;-65
2021/04/06 08:50:37;;;;;;;10.65;5.92;;;;;;;24.95;18.05;100304.48;1702323;84;20206;-61
2021/04/06 08:57:21;;;;;;;25.57;10.40;;;;;;;24.88;17.51;100299.74;1713251;83;21128;-57
2021/04/06 08:59:55;;;;;;;30.43;13.85;;;;;;;25.61;17.68;100287.36;1682671;84;21331;-59
2021/04/06 09:02:29;;;;;;;18.48;8.55;;;;;;;26.01;17.60;100284.23;1703131;84;21215;-65
2021/04/06 09:05:02;;;;;;;14.33;5.53;;;;;;;26.27;16.70;100273.02;1702722;84;22142;-60
2021/04/06 09:07:39;;;;;;;24.90;10.23;;;;;;;25.81;16.10;100292.68;1703455;84;21200;-59
2021/04/06 09:14:36;;;;;;;29.23;13.75;;;;;;;24.96;17.61;100283.88;1688414;84;21153;-61
2021/04/06 09:17:10;;;;;;;53.20;24.52;;;;;;;25.42;17.68;100281.27;1691135;83;21319;-62
2021/04/06 09:19:43;;;;;;;55.30;25.80;;;;;;;25.78;17.56;100278.39;1690518;84;21181;-66
2021/04/06 09:22:16;;;;;;;;;;;;;;;26.11;16.92;100276.97;1688718;85;21318;-65
2021/04/06 09:24:48;;;;;;;49.53;24.52;;;;;;;25.88;15.94;100281.30;1686036;85;20225;-67
2021/04/06 09:27:21;;;;;;;42.55;19.25;;;;;;;25.53;16.83;100283.70;1686361;85;21251;-63
2021/04/06 09:34:14;;;;;;;33.28;15.03;;;;;;;24.73;17.68;100269.84;1693132;84;21160;-59
2021/04/06 09:37:05;;;;;;;72.75;31.20;;;;;;;23.83;18.31;100274.22;1702430;83;21204;-62
2021/04/06 09:39:42;;;;;;;12.63;6.12;;;;;;;23.78;18.64;100274.57;1701903;83;21913;-63
2021/04/06 09:42:17;;;;;;;55.05;25.55;;;;;;;23.52;18.47;100274.83;1701940;84;21197;-61
2021/04/06 09:48:59;;;;;;;16.95;9.05;;;;;;;22.62;19.53;100277.37;1703272;84;21160;-65
2021/04/06 09:51:33;;;;;;;50.63;26.15;;;;;;;22.01;19.64;100258.32;1702722;83;21532;-59
2021/04/06 10:01:56;;;;;;;31.70;15.18;;;;;;;20.28;21.89;100272.68;1692403;84;22108;-65
2021/04/06 10:08:38;;;;;;;25.15;13.22;;;;;;;19.28;22.98;100276.67;1692954;84;21486;-69
2021/04/06 10:15:30;;;;;;;12.40;6.87;;;;;;;18.61;24.04;100278.88;1692990;84;21971;-68
2021/04/06 10:18:16;;;;;;;7.80;5.37;;;;;;;18.21;25.00;100272.75;1691544;84;22077;-65
2021/04/06 10:20:53;;;;;;;7.08;5.12;;;;;;;18.10;25.29;100271.41;1691670;84;21582;-61
2021/04/06 10:23:35;;;;;;;7.78;4.90;;;;;;;17.99;25.36;100267.37;1692778;84;21331;-61
2021/04/06 10:26:23;;;;;;;17.75;8.05;;;;;;;17.80;25.64;100260.48;1692607;84;21232;-58
2021/04/06 10:29:08;;;;;;;31.05;17.90;;;;;;;17.50;26.07;100259.61;1692804;84;21455;-58
2021/04/06 10:31:51;;;;;;;20.48;10.75;;;;;;;17.18;26.80;100273.12;1691762;84;21276;-58
2021/04/06 10:34:24;;;;;;;30.92;12.13;;;;;;;16.92;27.52;100262.91;1693464;84;21292;-68
2021/04/06 10:37:09;;;;;;;12.00;7.00;;;;;;;16.72;27.84;100262.55;1691517;84;21201;-60
2021/04/06 10:39:44;;;;;;;14.83;9.60;;;;;;;16.57;28.11;100260.84;1692748;84;21446;-58
2021/04/06 10:42:18;;;;;;;12.35;6.60;;;;;;;16.44;28.52;100254.76;1700535;84;21503;-60
2021/04/06 10:44:51;;;;;;;18.67;9.85;;;;;;;16.34;28.36;100246.71;1692815;84;21345;-59
2021/04/06 10:47:28;;;;;;;33.38;17.17;;;;;;;16.28;28.86;100246.92;1674501;84;21198;-57
2021/04/06 10:50:02;;;;;;;10.18;5.22;;;;;;;16.43;28.94;100235.12;1692373;84;21273;-57
2021/04/06 10:52:35;;;;;;;22.63;12.10;;;;;;;16.37;28.52;100248.52;1674676;84;21351;-60
2021/04/06 10:55:39;;;;;;;11.12;6.58;;;;;;;16.29;29.22;100255.68;1695304;84;21417;-59
2021/04/06 10:58:21;;;;;;;16.87;10.03;;;;;;;16.34;29.19;100250.67;1692574;84;21216;-61
2021/04/06 11:01:03;;;;;;;15.45;7.87;;;;;;;16.31;29.73;100249.72;1692663;84;21239;-63
2021/04/06 11:03:55;;;;;;;12.43;6.62;;;;;;;16.28;29.80;100259.30;1694154;84;21339;-62
2021/04/06 11:06:34;;;;;;;14.15;8.20;;;;;;;16.26;29.91;100260.81;1692573;84;21631;-58
2021/04/06 11:09:21;;;;;;;12.05;6.28;;;;;;;16.19;29.77;100259.33;1692574;84;21330;-62
2021/04/06 11:11:57;;;;;;;22.32;12.53;;;;;;;16.02;30.12;100252.98;1691276;84;21640;-61
2021/04/06 11:14:33;;;;;;;16.85;8.35;;;;;;;15.83;30.63;100254.70;1692825;84;22031;-60
2021/04/06 11:17:06;;;;;;;32.58;16.87;;;;;;;15.69;30.90;100252.23;1692566;84;21374;-60
2021/04/06 11:19:45;;;;;;;37.65;17.77;;;;;;;15.52;31.37;100253.78;1692880;84;21201;-59
2021/04/06 11:22:20;;;;;;;31.60;13.13;;;;;;;15.41;32.03;100258.38;1692675;84;21557;-61
2021/04/06 11:24:56;;;;;;;24.77;13.45;;;;;;;15.35;32.43;100257.73;1692737;84;21248;-60
2021/04/06 11:27:29;;;;;;;;;;;;;;;15.30;33.39;100256.58;1694814;84;21302;-66
2021/04/06 11:30:03;;;;;;;21.82;11.80;;;;;;;15.27;33.74;100256.90;1693077;84;20348;-60
2021/04/06 11:32:36;;;;;;;16.82;7.83;;;;;;;15.18;33.96;100253.94;1695029;84;21189;-71
2021/04/06 11:35:10;;;;;;;11.63;6.95;;;;;;;15.06;34.02;100254.77;1692867;84;21185;-71
2021/04/06 11:37:43;;;;;;;10.20;5.97;;;;;;;14.93;34.12;100261.50;1692377;84;21212;-61
2021/04/06 11:40:18;;;;;;;15.55;6.70;;;;;;;14.80;34.63;100259.36;1692790;84;21244;-63
2021/04/06 11:42:52;;;;;;;;;;;;;;;14.68;35.51;100256.71;1695064;84;21396;-62
2021/04/06 11:45:25;;;;;;;10.98;6.72;;;;;;;14.48;36.04;100256.66;1672802;84;20708;-65
2021/04/06 11:47:57;;;;;;;12.98;7.37;;;;;;;14.29;36.66;100260.84;1690472;84;21224;-61
2021/04/06 11:50:31;;;;;;;13.58;7.22;;;;;;;14.21;37.34;100260.31;1690980;84;21300;-63
2021/04/06 11:57:13;;;;;;;9.75;6.67;;;;;;;14.14;37.88;100247.45;1690673;84;21137;-66
2021/04/06 11:59:47;;;;;;;17.42;8.43;;;;;;;14.18;37.53;100241.74;1691326;84;21216;-59
2021/04/06 12:02:21;;;;;;;12.40;7.25;;;;;;;14.17;37.42;100243.20;1692184;84;21503;-62
2021/04/06 12:04:54;;;;;;;16.77;6.78;;;;;;;14.18;37.50;100245.69;1691608;84;21220;-61
2021/04/06 12:07:27;;;;;;;10.70;6.47;;;;;;;14.23;37.65;100241.27;1693049;84;21205;-60
2021/04/06 12:10:01;;;;;;;9.60;5.43;;;;;;;14.26;37.51;100238.28;1692972;84;21367;-61
2021/04/06 12:12:35;;;;;;;12.47;5.42;;;;;;;14.23;37.05;100235.99;1691574;84;21209;-67
2021/04/06 12:15:09;;;;;;;9.50;5.70;;;;;;;14.17;36.75;100237.94;1692934;84;21462;-60
2021/04/06 12:17:42;;;;;;;13.18;6.10;;;;;;;14.19;36.94;100234.64;1693011;84;21515;-61
2021/04/06 12:20:15;;;;;;;11.43;5.93;;;;;;;14.23;37.44;100238.62;1692893;84;21359;-61
2021/04/06 12:22:50;;;;;;;9.68;5.72;;;;;;;14.31;36.68;100236.52;1691617;84;21336;-64
2021/04/06 12:25:23;;;;;;;15.68;7.92;;;;;;;14.38;36.34;100242.30;1692678;84;21889;-62
2021/04/06 12:27:56;;;;;;;10.03;5.78;;;;;;;14.44;36.52;100240.84;1693108;84;21198;-62
2021/04/06 12:30:30;;;;;;;13.60;6.15;;;;;;;14.48;36.62;100240.36;1693620;84;22040;-64
2021/04/06 12:33:04;;;;;;;;;;;;;;;14.47;37.07;100241.85;1694030;84;21482;-61
2021/04/06 12:35:38;;;;;;;14.13;6.90;;;;;;;14.44;37.34;100245.62;1692974;84;20203;-65
2021/04/06 12:38:12;;;;;;;12.55;6.70;;;;;;;14.43;37.40;100241.34;1691770;84;21633;-66
2021/04/06 12:40:46;;;;;;;17.15;8.25;;;;;;;14.47;37.82;100239.22;1697704;84;21551;-60
2021/04/06 12:43:18;;;;;;;11.90;6.70;;;;;;;14.46;37.92;100238.88;1696645;84;21189;-59
2021/04/06 12:45:52;;;;;;;8.35;6.30;;;;;;;14.42;38.17;100242.34;1690697;84;22014;-59
2021/04/06 12:48:25;;;;;;;14.10;7.37;;;;;;;14.40;38.32;100246.12;1687971;85;21504;-59
2021/04/06 12:50:59;;;;;;;8.88;6.03;;;;;;;14.42;38.56;100244.97;1687774;85;22073;-63
2021/04/06 12:53:32;;;;;;;8.08;5.75;;;;;;;14.48;38.57;100243.00;1686606;85;21336;-58
2021/04/06 12:56:06;;;;;;;10.93;6.15;;;;;;;14.52;37.97;100251.41;1687687;85;22209;-62
2021/04/06 12:58:39;;;;;;;;;;;;;;;14.53;38.03;100252.56;1690743;85;21308;-60